Time;durP1;ratioP1;P1;durP2;ratioP2;P2;SDS_P1;SDS_P2;PMS_P1;PMS_P2;Temp;Humidity;BMP_temperature;BMP_pressure;BME280_temperature;BME280_humidity;BME280_pressure;Samples;Min_cycle;Max_cycle;Signal;HPM_P1;HPM_P2
2021/03/14 00:01:18;;;;;;;19.67;3.13;;;7.00;87.30;;;;;;5071412;28;20042;-67
2021/03/14 00:03:43;;;;;;;14.37;2.07;;;7.10;86.90;;;;;;5072138;28;20094;-67
2021/03/14 00:06:09;;;;;;;9.97;2.70;;;7.00;86.90;;;;;;5072099;28;20449;-67
2021/03/14 00:08:35;;;;;;;13.23;3.40;;;7.00;86.90;;;;;;5071486;28;20053;-66
2021/03/14 00:11:04;;;;;;;13.30;2.33;;;7.10;87.00;;;;;;5071829;28;20383;-67
2021/03/14 00:13:33;;;;;;;17.03;2.40;;;7.20;86.80;;;;;;5071626;28;20070;-67
2021/03/14 00:16:00;;;;;;;14.73;2.57;;;7.10;86.70;;;;;;5071395;28;20367;-67
2021/03/14 00:18:29;;;;;;;14.87;2.07;;;7.10;86.80;;;;;;5071753;28;20306;-67
2021/03/14 00:20:55;;;;;;;11.97;2.47;;;7.10;86.70;;;;;;5070755;28;20294;-67
2021/03/14 00:23:21;;;;;;;15.27;2.30;;;7.10;86.80;;;;;;5071970;28;21214;-67
2021/03/14 00:25:47;;;;;;;12.53;2.90;;;7.10;86.60;;;;;;5071753;28;20295;-66
2021/03/14 00:28:16;;;;;;;18.77;3.17;;;7.20;86.70;;;;;;5070949;28;20120;-67
2021/03/14 00:30:42;;;;;;;11.43;2.00;;;7.10;86.40;;;;;;5071581;28;20048;-67
2021/03/14 00:33:08;;;;;;;16.53;3.00;;;7.10;86.50;;;;;;5071578;28;20702;-67
2021/03/14 00:35:33;;;;;;;12.20;2.93;;;7.10;86.50;;;;;;5071044;28;20344;-67
2021/03/14 00:37:59;;;;;;;14.47;2.40;;;7.10;86.50;;;;;;5071718;28;20052;-67
2021/03/14 00:40:26;;;;;;;10.50;1.97;;;7.10;86.30;;;;;;5071667;28;20048;-67
2021/03/14 00:42:54;;;;;;;17.17;3.03;;;7.00;86.40;;;;;;5070606;28;20099;-67
2021/03/14 00:45:19;;;;;;;15.10;3.00;;;7.00;86.50;;;;;;5071373;28;20385;-67
2021/03/14 00:47:45;;;;;;;14.93;2.50;;;7.00;86.60;;;;;;5071332;28;20429;-67
2021/03/14 00:50:11;;;;;;;11.23;2.40;;;7.00;86.50;;;;;;5070521;28;20118;-67
2021/03/14 00:52:37;;;;;;;13.47;2.40;;;7.00;86.50;;;;;;5071809;28;20049;-67
2021/03/14 00:55:03;;;;;;;15.93;2.80;;;7.00;86.50;;;;;;5071205;28;20389;-67
2021/03/14 00:57:29;;;;;;;16.03;2.57;;;7.10;86.40;;;;;;5071031;28;20087;-67
2021/03/14 00:59:55;;;;;;;12.27;2.50;;;7.10;86.20;;;;;;5071252;28;20326;-67
2021/03/14 01:02:21;;;;;;;17.80;3.10;;;7.10;86.30;;;;;;5071107;28;20052;-67
2021/03/14 01:04:46;;;;;;;12.30;2.20;;;7.20;86.10;;;;;;5070389;28;20146;-67
2021/03/14 01:07:12;;;;;;;15.93;2.20;;;7.20;86.10;;;;;;5071450;28;20053;-67
2021/03/14 01:09:38;;;;;;;11.70;2.40;;;7.20;86.00;;;;;;5070809;28;20048;-67
2021/03/14 01:12:04;;;;;;;15.63;2.77;;;7.20;85.90;;;;;;5071182;28;20404;-67
2021/03/14 01:14:30;;;;;;;17.77;2.60;;;7.10;85.90;;;;;;5071361;28;20302;-67
2021/03/14 01:16:55;;;;;;;12.27;2.40;;;7.10;86.10;;;;;;5070346;28;20349;-67
2021/03/14 01:19:21;;;;;;;15.00;2.53;;;7.10;85.90;;;;;;5070979;28;20052;-67
2021/03/14 01:21:47;;;;;;;13.47;2.40;;;7.10;85.80;;;;;;5070994;28;20706;-67
2021/03/14 01:24:13;;;;;;;12.47;2.40;;;7.10;85.90;;;;;;5070399;28;20106;-67
2021/03/14 01:26:38;;;;;;;15.10;2.33;;;7.00;85.90;;;;;;5071299;28;20075;-67
2021/03/14 01:29:04;;;;;;;15.37;3.10;;;7.00;85.70;;;;;;5075209;28;20048;-68
2021/03/14 01:31:30;;;;;;;13.90;3.40;;;7.00;85.90;;;;;;5074441;28;20056;-67
2021/03/14 01:33:55;;;;;;;11.40;1.93;;;6.90;85.80;;;;;;5075002;28;20049;-67
2021/03/14 01:36:21;;;;;;;17.53;2.60;;;6.90;86.00;;;;;;5075187;28;20059;-67
2021/03/14 01:38:47;;;;;;;17.13;3.77;;;6.90;86.00;;;;;;5074229;28;20113;-67
2021/03/14 01:41:13;;;;;;;15.00;2.50;;;6.90;86.10;;;;;;5074921;28;20481;-67
2021/03/14 01:43:39;;;;;;;13.03;2.57;;;6.90;86.10;;;;;;5074641;28;20060;-67
2021/03/14 01:46:07;;;;;;;14.70;2.83;;;6.90;86.30;;;;;;5074007;28;20439;-67
2021/03/14 01:48:34;;;;;;;15.47;2.50;;;6.90;86.40;;;;;;5074919;28;20409;-67
2021/03/14 01:51:01;;;;;;;15.60;3.97;;;6.90;86.50;;;;;;5074783;28;20318;-67
2021/03/14 01:53:27;;;;;;;17.80;4.03;;;6.90;86.50;;;;;;5074304;28;20298;-66
2021/03/14 01:55:53;;;;;;;19.67;2.70;;;6.80;86.40;;;;;;5074563;28;20303;-67
2021/03/14 01:58:20;;;;;;;14.33;2.53;;;6.80;86.40;;;;;;5074558;28;20400;-67
2021/03/14 02:00:47;;;;;;;17.67;2.90;;;6.80;86.90;;;;;;5073635;28;20290;-67
2021/03/14 02:03:13;;;;;;;17.13;2.33;;;6.80;86.80;;;;;;5074129;28;20813;-67
2021/03/14 02:05:39;;;;;;;14.90;2.70;;;6.80;86.70;;;;;;5074452;28;20373;-67
2021/03/14 02:08:06;;;;;;;20.50;3.40;;;6.80;86.90;;;;;;5073765;28;20385;-67
2021/03/14 02:10:34;;;;;;;16.77;2.47;;;6.70;86.80;;;;;;5074604;28;20068;-67
2021/03/14 02:13:06;;;;;;;17.90;2.83;;;6.80;87.20;;;;;;5073597;28;20382;-67
2021/03/14 02:15:34;;;;;;;15.20;2.90;;;6.80;87.00;;;;;;5074332;28;20305;-67
2021/03/14 02:18:01;;;;;;;16.60;2.73;;;6.80;86.80;;;;;;5074289;28;20307;-67
2021/03/14 02:20:30;;;;;;;16.33;2.63;;;6.80;86.70;;;;;;5073680;28;20291;-67
2021/03/14 02:23:34;;;;;;;17.63;2.90;;;6.80;86.90;;;;;;5074042;28;20372;-67
2021/03/14 02:25:59;;;;;;;15.20;2.33;;;6.80;86.90;;;;;;5073977;28;20310;-67
2021/03/14 02:28:26;;;;;;;18.30;3.10;;;6.80;87.00;;;;;;5073372;28;20290;-67
2021/03/14 02:30:52;;;;;;;15.17;3.20;;;6.80;87.00;;;;;;5073733;28;20455;-67
2021/03/14 02:33:22;;;;;;;16.03;2.87;;;6.90;86.90;;;;;;5074091;28;20312;-67
2021/03/14 02:35:51;;;;;;;19.00;3.17;;;6.90;86.80;;;;;;5073244;28;20374;-67
2021/03/14 02:38:18;;;;;;;16.60;2.80;;;7.00;86.70;;;;;;5073312;28;20791;-67
2021/03/14 02:40:44;;;;;;;17.60;2.70;;;6.90;86.50;;;;;;5073749;28;20299;-67
2021/03/14 02:43:10;;;;;;;19.23;3.37;;;7.00;86.30;;;;;;5072772;28;20311;-67
2021/03/14 02:45:37;;;;;;;13.13;2.73;;;6.90;86.30;;;;;;5074094;28;20346;-67
2021/03/14 02:48:05;;;;;;;17.50;3.00;;;6.90;86.10;;;;;;5072975;28;20298;-67
2021/03/14 02:50:31;;;;;;;20.70;3.17;;;6.90;86.20;;;;;;5073802;28;20356;-67
2021/03/14 02:52:58;;;;;;;13.77;2.60;;;6.90;86.30;;;;;;5073297;28;20381;-67
2021/03/14 02:55:25;;;;;;;17.60;2.57;;;6.90;86.30;;;;;;5072895;28;20360;-67
2021/03/14 02:57:52;;;;;;;13.90;2.57;;;6.90;86.30;;;;;;5073592;28;20294;-67
2021/03/14 03:00:24;;;;;;;23.33;3.50;;;6.90;86.10;;;;;;5073464;28;20299;-67
2021/03/14 03:02:52;;;;;;;16.70;3.27;;;6.90;86.40;;;;;;5072620;28;20364;-67
2021/03/14 03:05:20;;;;;;;15.90;2.73;;;6.90;86.40;;;;;;5073245;28;20817;-67
2021/03/14 03:07:51;;;;;;;12.20;3.50;;;6.90;86.50;;;;;;5073120;28;20655;-67
2021/03/14 03:10:17;;;;;;;16.73;3.50;;;6.90;86.50;;;;;;5072290;28;20786;-67
2021/03/14 03:12:46;;;;;;;21.13;2.90;;;6.90;86.40;;;;;;5073282;28;20059;-67
2021/03/14 03:15:13;;;;;;;15.00;2.90;;;6.90;86.50;;;;;;5073082;28;20290;-67
2021/03/14 03:17:41;;;;;;;17.03;2.97;;;6.90;87.20;;;;;;5072202;28;20771;-67
2021/03/14 03:20:09;;;;;;;13.90;2.87;;;6.90;86.30;;;;;;5072938;28;20294;-67
2021/03/14 03:22:36;;;;;;;14.73;2.60;;;6.90;86.40;;;;;;5073101;28;20779;-67
2021/03/14 03:25:06;;;;;;;19.03;2.67;;;6.80;86.50;;;;;;5072178;28;20291;-67
2021/03/14 03:27:37;;;;;;;13.17;3.47;;;6.90;86.70;;;;;;5073129;28;20349;-67
2021/03/14 03:30:14;;;;;;;15.88;3.97;;;6.80;86.50;;;;;;5072547;28;20374;-67
2021/03/14 03:32:40;;;;;;;15.13;2.77;;;6.80;86.60;;;;;;5072704;28;20551;-67
2021/03/14 03:35:10;;;;;;;17.77;3.73;;;6.80;86.70;;;;;;5072788;28;20295;-67
2021/03/14 03:37:37;;;;;;;14.80;3.23;;;6.90;86.90;;;;;;5072351;28;20155;-67
2021/03/14 03:40:05;;;;;;;13.70;2.70;;;6.90;86.60;;;;;;5072290;28;20373;-67
2021/03/14 03:42:35;;;;;;;16.40;2.90;;;6.90;86.50;;;;;;5072621;28;20299;-67
2021/03/14 03:45:03;;;;;;;15.80;3.47;;;6.90;86.40;;;;;;5071568;28;20660;-67
2021/03/14 03:47:29;;;;;;;19.60;2.97;;;6.90;86.40;;;;;;5072685;28;20348;-67
2021/03/14 03:49:57;;;;;;;12.63;2.90;;;6.90;86.50;;;;;;5071773;28;20302;-67
2021/03/14 03:52:25;;;;;;;17.90;2.93;;;6.90;86.40;;;;;;5071703;28;20415;-67
2021/03/14 03:54:52;;;;;;;18.93;3.33;;;6.90;86.40;;;;;;5072195;28;20649;-67
2021/03/14 03:57:20;;;;;;;18.60;2.60;;;6.90;86.50;;;;;;5072177;28;20691;-67
2021/03/14 03:59:47;;;;;;;18.57;3.60;;;6.90;86.40;;;;;;5071520;28;20310;-67
2021/03/14 04:02:13;;;;;;;17.47;3.53;;;6.90;86.50;;;;;;5072211;28;20311;-67
2021/03/14 04:04:41;;;;;;;18.03;3.57;;;6.80;86.30;;;;;;5072169;28;20753;-67
2021/03/14 04:07:10;;;;;;;15.23;3.00;;;6.80;86.50;;;;;;5071390;28;20391;-67
2021/03/14 04:09:36;;;;;;;15.43;3.47;;;6.70;86.60;;;;;;5072266;28;20287;-67
2021/03/14 04:12:03;;;;;;;19.40;3.40;;;6.70;86.70;;;;;;5071625;28;20303;-67
2021/03/14 04:14:29;;;;;;;18.67;3.90;;;6.70;86.60;;;;;;5071344;28;20306;-67
2021/03/14 04:16:56;;;;;;;13.90;3.07;;;6.80;86.70;;;;;;5071918;28;20344;-67
2021/03/14 04:19:26;;;;;;;14.97;3.47;;;6.80;86.70;;;;;;5071832;28;20414;-67
2021/03/14 04:21:54;;;;;;;19.27;3.00;;;6.70;86.70;;;;;;5071375;28;20725;-67
2021/03/14 04:24:21;;;;;;;20.57;4.47;;;6.80;86.90;;;;;;5071754;28;20295;-67
2021/03/14 04:26:49;;;;;;;18.90;4.10;;;6.80;86.80;;;;;;5070841;28;20356;-67
2021/03/14 04:29:15;;;;;;;16.47;4.00;;;6.70;86.90;;;;;;5071532;28;20663;-67
2021/03/14 04:31:45;;;;;;;17.07;3.43;;;6.70;86.90;;;;;;5071842;28;20352;-67
2021/03/14 04:34:12;;;;;;;16.73;3.80;;;6.70;86.80;;;;;;5070766;28;20767;-67
2021/03/14 04:36:40;;;;;;;15.90;3.60;;;6.70;86.90;;;;;;5071827;28;20783;-67
2021/03/14 04:39:06;;;;;;;17.10;4.27;;;6.60;87.00;;;;;;5071633;28;20686;-67
2021/03/14 04:41:34;;;;;;;17.77;3.67;;;6.50;87.10;;;;;;5070886;28;20794;-67
2021/03/14 04:44:02;;;;;;;20.03;3.63;;;6.50;87.30;;;;;;5071282;28;20389;-67
2021/03/14 04:46:27;;;;;;;18.43;3.47;;;6.50;87.40;;;;;;5071823;28;20330;-67
2021/03/14 04:48:57;;;;;;;19.70;3.37;;;6.50;87.20;;;;;;5070586;28;20333;-67
2021/03/14 04:51:26;;;;;;;19.30;3.47;;;6.50;87.30;;;;;;5071384;28;20071;-67
2021/03/14 04:53:53;;;;;;;22.00;4.10;;;6.50;87.20;;;;;;5071227;28;20355;-67
2021/03/14 04:56:19;;;;;;;13.87;3.73;;;6.50;87.30;;;;;;5070747;28;20330;-67
2021/03/14 04:58:46;;;;;;;18.80;3.93;;;6.40;87.40;;;;;;5071372;28;20628;-67
2021/03/14 05:01:13;;;;;;;20.43;4.13;;;6.40;87.60;;;;;;5070985;28;20302;-67
2021/03/14 05:03:41;;;;;;;18.43;3.13;;;6.40;87.70;;;;;;5070636;28;20310;-67
2021/03/14 05:06:08;;;;;;;23.27;4.17;;;6.40;87.80;;;;;;5071198;28;20434;-67
2021/03/14 05:08:34;;;;;;;25.17;4.20;;;6.40;87.70;;;;;;5086993;28;20301;-67
2021/03/14 05:11:00;;;;;;;19.60;4.30;;;6.40;87.70;;;;;;5070582;28;20650;-68
2021/03/14 05:13:26;;;;;;;24.70;4.13;;;6.30;87.70;;;;;;5071262;28;20294;-67
2021/03/14 05:15:53;;;;;;;21.83;4.10;;;6.30;87.80;;;;;;5070434;28;20052;-67
2021/03/14 05:18:19;;;;;;;19.10;4.00;;;6.30;88.00;;;;;;5071169;28;20369;-67
2021/03/14 05:20:46;;;;;;;21.03;4.60;;;6.30;88.10;;;;;;5071073;28;20417;-67
2021/03/14 05:23:12;;;;;;;15.83;3.67;;;6.30;88.00;;;;;;5070188;28;20392;-67
2021/03/14 05:25:40;;;;;;;16.60;3.73;;;6.30;88.00;;;;;;5071330;28;20291;-67
2021/03/14 05:28:07;;;;;;;16.10;3.63;;;6.30;88.00;;;;;;5071153;28;20322;-67
2021/03/14 05:30:35;;;;;;;16.40;2.90;;;6.30;88.00;;;;;;5070604;28;20438;-67
2021/03/14 05:33:02;;;;;;;18.97;3.13;;;6.30;88.20;;;;;;5071137;28;20307;-67
2021/03/14 05:35:30;;;;;;;24.50;4.20;;;6.30;88.00;;;;;;5071099;28;20295;-67
2021/03/14 05:37:57;;;;;;;14.50;3.17;;;6.30;88.00;;;;;;5070272;28;20295;-67
2021/03/14 05:40:24;;;;;;;13.07;2.87;;;6.30;88.10;;;;;;5071037;28;20394;-67
2021/03/14 05:42:51;;;;;;;18.87;3.43;;;6.20;88.10;;;;;;5070625;28;20327;-68
2021/03/14 05:45:18;;;;;;;14.73;3.63;;;6.20;88.20;;;;;;5069993;28;20824;-67
2021/03/14 05:47:44;;;;;;;15.13;2.93;;;6.20;88.40;;;;;;5070895;28;20459;-67
2021/03/14 05:50:13;;;;;;;18.03;3.33;;;6.20;88.40;;;;;;5070755;28;20390;-67
2021/03/14 05:52:41;;;;;;;15.53;3.40;;;6.20;88.30;;;;;;5070345;28;20140;-67
2021/03/14 05:55:11;;;;;;;22.37;2.77;;;6.30;88.60;;;;;;5070762;28;20348;-67
2021/03/14 05:57:41;;;;;;;18.40;3.43;;;6.30;88.40;;;;;;5071146;28;20663;-67
2021/03/14 06:00:09;;;;;;;13.60;3.10;;;6.30;88.50;;;;;;5069973;28;20334;-67
2021/03/14 06:02:39;;;;;;;14.00;3.30;;;6.40;88.50;;;;;;5070783;28;20318;-67
2021/03/14 06:05:07;;;;;;;17.47;3.30;;;6.30;88.20;;;;;;5069826;28;20794;-67
2021/03/14 06:07:33;;;;;;;17.17;4.20;;;6.40;88.20;;;;;;5070849;28;20771;-67
2021/03/14 06:09:59;;;;;;;16.60;3.27;;;6.40;88.20;;;;;;5070738;28;20321;-67
2021/03/14 06:12:25;;;;;;;12.67;4.33;;;6.40;88.20;;;;;;5069763;28;20059;-68
2021/03/14 06:14:50;;;;;;;14.27;3.30;;;6.50;88.30;;;;;;5073839;28;20622;-67
2021/03/14 06:17:16;;;;;;;16.50;3.67;;;6.50;88.20;;;;;;5074076;28;20044;-67
2021/03/14 06:19:42;;;;;;;14.33;3.57;;;6.50;88.20;;;;;;5073500;28;20065;-67
2021/03/14 06:22:20;;;;;;;19.67;3.97;;;6.50;88.20;;;;;;5073811;28;20512;-67
2021/03/14 06:24:47;;;;;;;12.37;2.43;;;6.50;89.10;;;;;;5073733;28;20400;-67
2021/03/14 06:27:51;;;;;;;16.50;3.70;;;6.50;88.20;;;;;;5073123;28;20306;-67
2021/03/14 06:30:18;;;;;;;16.00;3.70;;;6.60;88.10;;;;;;5074018;28;20322;-67
2021/03/14 06:33:04;;;;;;;18.43;4.47;;;6.60;88.00;;;;;;5073972;28;20399;-67
2021/03/14 06:35:41;;;;;;;22.00;3.97;;;6.60;87.90;;;;;;5073675;28;20600;-67
2021/03/14 06:38:36;;;;;;;13.80;3.67;;;6.70;88.10;;;;;;5073854;28;20429;-67
2021/03/14 06:41:02;;;;;;;16.70;3.03;;;6.70;87.90;;;;;;5072046;28;20299;-67
2021/03/14 06:43:35;;;;;;;16.53;3.90;;;6.70;87.90;;;;;;5073922;28;20655;-67
2021/03/14 06:46:02;;;;;;;16.03;4.70;;;6.80;88.10;;;;;;5073663;28;20113;-67
2021/03/14 06:48:28;;;;;;;18.60;3.83;;;6.80;87.80;;;;;;5073164;28;20295;-67
2021/03/14 06:50:54;;;;;;;14.77;3.70;;;7.00;87.70;;;;;;5073766;28;20360;-67
2021/03/14 06:53:24;;;;;;;12.93;3.03;;;6.90;87.40;;;;;;5073743;28;20355;-67
2021/03/14 06:55:52;;;;;;;17.20;3.93;;;7.00;87.50;;;;;;5072833;28;20659;-67
2021/03/14 06:58:36;;;;;;;14.80;3.10;;;7.00;87.20;;;;;;5073593;28;20307;-67
2021/03/14 07:01:06;;;;;;;18.43;3.77;;;7.10;87.40;;;;;;5072343;28;20380;-67
2021/03/14 07:03:32;;;;;;;13.23;3.00;;;7.10;87.20;;;;;;5070141;28;20831;-67
2021/03/14 07:06:30;;;;;;;14.13;3.60;;;7.00;87.10;;;;;;5072906;28;20389;-67
2021/03/14 07:09:08;;;;;;;14.77;3.53;;;7.10;87.20;;;;;;5055774;28;20044;-67
2021/03/14 07:11:37;;;;;;;12.27;2.77;;;7.20;87.10;;;;;;5071276;28;20302;-67
2021/03/14 07:14:05;;;;;;;15.20;3.20;;;7.20;87.00;;;;;;5072799;28;20305;-68
2021/03/14 07:16:45;;;;;;;13.47;3.20;;;7.20;86.90;;;;;;5072404;28;20291;-66
2021/03/14 07:19:28;;;;;;;12.60;2.97;;;7.20;86.90;;;;;;5072893;28;20295;-66
2021/03/14 07:22:07;;;;;;;12.00;2.53;;;7.30;87.00;;;;;;5072564;28;20409;-65
2021/03/14 07:24:41;;;;;;;14.43;3.07;;;7.30;86.90;;;;;;5072654;28;20295;-67
2021/03/14 07:27:11;;;;;;;13.50;2.90;;;7.30;86.60;;;;;;5072771;28;20302;-67
2021/03/14 07:29:39;;;;;;;22.17;3.63;;;7.30;86.60;;;;;;5072293;28;20328;-67
2021/03/14 07:32:07;;;;;;;12.43;2.80;;;7.20;86.60;;;;;;5072565;28;20303;-67
2021/03/14 07:34:34;;;;;;;15.83;3.07;;;7.20;86.90;;;;;;5072792;28;20299;-67
2021/03/14 07:37:00;;;;;;;18.70;3.80;;;7.30;86.90;;;;;;5071715;28;20787;-67
2021/03/14 07:39:26;;;;;;;20.70;4.37;;;7.40;87.70;;;;;;5072670;28;20298;-66
2021/03/14 07:41:52;;;;;;;20.50;3.43;;;7.40;86.30;;;;;;5072052;28;20364;-67
2021/03/14 07:44:20;;;;;;;9.53;2.80;;;7.50;86.30;;;;;;5071610;28;20052;-67
2021/03/14 07:46:47;;;;;;;14.20;3.67;;;7.50;86.10;;;;;;5072060;28;20306;-67
2021/03/14 07:49:14;;;;;;;13.97;2.60;;;7.50;86.00;;;;;;5072333;28;20344;-67
2021/03/14 07:51:49;;;;;;;17.63;3.87;;;7.50;85.80;;;;;;5071575;28;20307;-67
2021/03/14 07:54:49;;;;;;;17.10;3.10;;;7.50;85.80;;;;;;5072005;28;20900;-67
2021/03/14 07:57:20;;;;;;;13.77;3.07;;;7.60;86.60;;;;;;5071658;28;20806;-67
2021/03/14 07:59:46;;;;;;;12.38;2.72;;;7.70;85.50;;;;;;5071537;28;20286;-67
2021/03/14 08:02:25;;;;;;;14.57;3.13;;;7.70;85.40;;;;;;5071464;28;20079;-67
2021/03/14 08:05:03;;;;;;;11.73;2.87;;;7.80;85.20;;;;;;5070950;28;20076;-66
2021/03/14 08:07:34;;;;;;;14.20;3.20;;;7.90;85.20;;;;;;5072102;28;20821;-66
2021/03/14 08:10:27;;;;;;;11.18;3.45;;;8.10;85.40;;;;;;5071762;28;20774;-67
2021/03/14 08:12:53;;;;;;;9.87;2.33;;;8.50;84.50;;;;;;5071149;28;20102;-68
2021/03/14 08:15:22;;;;;;;14.47;2.27;;;8.90;83.60;;;;;;5071842;28;20663;-67
2021/03/14 08:17:48;;;;;;;14.07;2.47;;;8.90;82.90;;;;;;5071655;28;20048;-67
2021/03/14 08:20:20;;;;;;;11.63;2.87;;;8.90;82.50;;;;;;5070774;28;20345;-66
2021/03/14 08:22:47;;;;;;;12.27;2.72;;;9.00;82.80;;;;;;5071665;28;20310;-67
2021/03/14 08:25:21;;;;;;;9.27;2.07;;;9.10;82.30;;;;;;5071549;28;20382;-67
2021/03/14 08:27:50;;;;;;;13.67;2.27;;;9.30;81.50;;;;;;5070639;28;20052;-67
2021/03/14 08:30:31;;;;;;;13.53;2.53;;;9.40;81.30;;;;;;5071129;28;20048;-67
2021/03/14 08:33:25;;;;;;;10.23;2.00;;;9.60;80.40;;;;;;5070874;28;20140;-67
2021/03/14 08:36:15;;;;;;;15.97;2.70;;;9.50;80.00;;;;;;5070769;28;20514;-67
2021/03/14 08:38:54;;;;;;;9.73;2.37;;;10.00;80.10;;;;;;5071409;28;20135;-67
2021/03/14 08:41:28;;;;;;;11.40;2.53;;;10.80;79.20;;;;;;5070561;28;20049;-67
2021/03/14 08:43:57;;;;;;;11.53;2.83;;;11.80;77.30;;;;;;5071007;28;20060;-67
2021/03/14 08:47:01;;;;;;;12.53;3.23;;;12.40;74.10;;;;;;5071236;28;20044;-67
2021/03/14 08:49:27;;;;;;;15.80;3.07;;;12.70;70.50;;;;;;5069179;28;20040;-67
2021/03/14 08:51:53;;;;;;;9.20;2.50;;;12.90;72.70;;;;;;5070930;28;20049;-66
2021/03/14 08:54:27;;;;;;;9.90;2.50;;;13.30;71.60;;;;;;5070758;28;20131;-67
2021/03/14 08:56:57;;;;;;;10.50;2.77;;;13.40;69.50;;;;;;5071180;28;20052;-67
2021/03/14 08:59:24;;;;;;;16.10;2.80;;;13.30;69.50;;;;;;5070864;28;20040;-67
2021/03/14 09:02:01;;;;;;;10.17;2.23;;;13.30;68.50;;;;;;5070289;28;20502;-67
2021/03/14 09:04:34;;;;;;;11.27;2.30;;;13.30;66.00;;;;;;5071557;28;20060;-67
2021/03/14 09:07:05;;;;;;;8.37;1.60;;;13.00;68.40;;;;;;5071026;28;20083;-67
2021/03/14 09:09:31;;;;;;;10.65;1.80;;;12.80;68.30;;;;;;5070661;28;20106;-67
2021/03/14 09:12:03;;;;;;;10.83;2.47;;;12.50;68.30;;;;;;5070897;28;20036;-67
2021/03/14 09:14:31;;;;;;;12.45;2.47;;;12.20;69.10;;;;;;5071271;28;20103;-67
2021/03/14 09:17:03;;;;;;;10.40;1.80;;;12.30;69.10;;;;;;5070403;28;20055;-67
2021/03/14 09:19:42;;;;;;;7.63;2.10;;;12.30;68.40;;;;;;5071196;28;20105;-66
2021/03/14 09:22:13;;;;;;;12.67;3.53;;;11.90;68.70;;;;;;5070209;28;20076;-67
2021/03/14 09:24:47;;;;;;;10.00;2.27;;;11.50;69.30;;;;;;5071016;28;20055;-67
2021/03/14 09:27:29;;;;;;;9.00;2.57;;;11.00;70.00;;;;;;5070946;28;20074;-68
2021/03/14 09:29:59;;;;;;;13.63;2.30;;;10.90;71.10;;;;;;5070172;28;20064;-67
2021/03/14 09:32:52;;;;;;;9.73;2.07;;;11.00;70.90;;;;;;5070651;28;20053;-71
2021/03/14 09:35:23;;;;;;;6.77;1.73;;;10.90;70.30;;;;;;5070737;28;20493;-67
2021/03/14 09:38:03;;;;;;;6.85;1.88;;;10.80;71.40;;;;;;5070060;28;20055;-68
2021/03/14 09:40:34;;;;;;;8.80;2.57;;;11.10;70.40;;;;;;5071148;28;20045;-66
2021/03/14 09:43:28;;;;;;;12.07;5.30;;;10.90;70.00;;;;;;5069950;28;20076;-67
2021/03/14 09:45:55;;;;;;;11.40;1.87;;;10.60;70.00;;;;;;5070849;28;20051;-67
2021/03/14 09:48:24;;;;;;;12.07;2.87;;;10.30;71.30;;;;;;5071980;28;20048;-67
2021/03/14 09:50:54;;;;;;;10.47;2.07;;;10.10;72.10;;;;;;5073738;28;20048;-67
2021/03/14 09:53:22;;;;;;;8.13;1.57;;;10.00;72.30;;;;;;5074617;28;20416;-66
2021/03/14 09:55:51;;;;;;;10.43;2.40;;;9.90;72.40;;;;;;5074533;28;20045;-67
2021/03/14 09:58:22;;;;;;;10.90;2.03;;;9.90;73.00;;;;;;5073496;28;20044;-67
2021/03/14 10:00:50;;;;;;;10.93;2.15;;;10.10;73.50;;;;;;5074540;28;20121;-67
2021/03/14 10:03:23;;;;;;;9.40;2.13;;;10.20;73.40;;;;;;5074331;28;20067;-66
2021/03/14 10:06:07;;;;;;;10.43;1.70;;;10.30;73.10;;;;;;5073593;28;20048;-67
2021/03/14 10:08:40;;;;;;;7.60;2.20;;;10.30;72.70;;;;;;5074297;28;20049;-68
2021/03/14 10:11:11;;;;;;;10.33;2.10;;;10.30;72.70;;;;;;5074340;28;20448;-67
2021/03/14 10:13:37;;;;;;;8.60;1.43;;;10.40;72.10;;;;;;5074498;28;20052;-68
2021/03/14 10:16:09;;;;;;;7.27;1.67;;;10.50;71.90;;;;;;5073887;28;20041;-68
2021/03/14 10:18:35;;;;;;;8.13;1.67;;;10.60;71.60;;;;;;5073693;28;20055;-68
2021/03/14 10:21:20;;;;;;;7.17;1.97;;;10.50;71.40;;;;;;5073896;28;20044;-70
2021/03/14 10:23:47;;;;;;;6.10;1.97;;;10.60;70.80;;;;;;5073861;28;20044;-69
2021/03/14 10:26:14;;;;;;;6.60;1.60;;;10.50;71.20;;;;;;5073354;28;20094;-68
2021/03/14 10:28:43;;;;;;;9.07;1.50;;;10.40;71.40;;;;;;5074097;28;20048;-68
2021/03/14 10:31:09;;;;;;;8.70;1.97;;;10.50;70.90;;;;;;5073843;28;20118;-69
2021/03/14 10:33:38;;;;;;;7.83;1.40;;;10.60;71.40;;;;;;5073153;28;20056;-69
2021/03/14 10:36:15;;;;;;;7.10;1.80;;;10.70;70.70;;;;;;5073518;28;20166;-68
2021/03/14 10:38:45;;;;;;;8.07;1.90;;;10.90;70.20;;;;;;5073476;28;20562;-68
2021/03/14 10:41:13;;;;;;;8.50;1.57;;;10.70;70.80;;;;;;5072886;28;20088;-68
2021/03/14 10:44:01;;;;;;;10.30;3.33;;;10.60;71.50;;;;;;5073194;28;20063;-69
2021/03/14 10:46:41;;;;;;;8.50;2.23;;;10.40;72.20;;;;;;5072738;28;20048;-68
2021/03/14 10:49:09;;;;;;;8.23;2.03;;;10.30;73.10;;;;;;5073176;28;20110;-69
2021/03/14 10:51:36;;;;;;;11.83;1.70;;;10.40;73.20;;;;;;5073555;28;20521;-68
2021/03/14 10:54:03;;;;;;;8.63;1.73;;;10.60;73.00;;;;;;5071801;28;20126;-68
2021/03/14 10:56:38;;;;;;;8.83;2.20;;;10.80;73.00;;;;;;5073401;28;20044;-67
2021/03/14 10:59:04;;;;;;;7.57;2.23;;;11.00;72.30;;;;;;5073012;28;20052;-67
2021/03/14 11:01:36;;;;;;;11.83;2.90;;;11.20;71.60;;;;;;5072626;28;20074;-66
2021/03/14 11:04:06;;;;;;;6.90;1.90;;;11.40;70.90;;;;;;5072863;28;20056;-66
2021/03/14 11:06:33;;;;;;;10.63;1.93;;;11.40;70.10;;;;;;5073006;28;20091;-67
2021/03/14 11:09:07;;;;;;;6.13;1.87;;;11.20;69.90;;;;;;5063226;28;20048;-67
2021/03/14 11:11:45;;;;;;;7.67;2.13;;;10.90;70.90;;;;;;5069554;28;20048;-67
2021/03/14 11:14:38;;;;;;;7.73;1.83;;;10.60;72.20;;;;;;5068274;28;20501;-69
2021/03/14 11:17:10;;;;;;;9.30;2.63;;;10.40;73.00;;;;;;5069067;28;20044;-68
2021/03/14 11:19:38;;;;;;;10.40;2.63;;;10.20;73.40;;;;;;5069678;28;20044;-69
2021/03/14 11:22:04;;;;;;;11.30;2.13;;;10.20;73.80;;;;;;5067658;28;20048;-68
2021/03/14 11:24:30;;;;;;;9.77;2.20;;;10.30;73.90;;;;;;5068922;28;20131;-70
2021/03/14 11:26:55;;;;;;;11.93;2.30;;;10.30;73.80;;;;;;5069347;28;20128;-68
2021/03/14 11:29:22;;;;;;;9.37;1.87;;;10.30;73.80;;;;;;5067682;28;20044;-70
2021/03/14 11:31:47;;;;;;;7.57;2.30;;;10.40;73.70;;;;;;5068481;28;20041;-69
2021/03/14 11:34:14;;;;;;;8.20;2.27;;;10.40;73.80;;;;;;5068434;28;20052;-71
2021/03/14 11:36:40;;;;;;;11.83;2.00;;;10.60;73.70;;;;;;5068611;28;20092;-71
2021/03/14 11:39:06;;;;;;;9.33;1.80;;;10.70;73.10;;;;;;5068423;28;20421;-71
2021/03/14 11:41:32;;;;;;;7.67;2.20;;;10.70;71.80;;;;;;5068709;28;20048;-69
2021/03/14 11:43:59;;;;;;;5.70;1.83;;;10.60;70.90;;;;;;5067637;28;20377;-69
2021/03/14 11:46:25;;;;;;;6.80;1.80;;;10.50;71.00;;;;;;5068914;28;20044;-69
2021/03/14 11:48:50;;;;;;;8.53;1.77;;;10.60;71.40;;;;;;5068432;28;20074;-69
2021/03/14 11:51:16;;;;;;;5.63;1.60;;;10.70;71.50;;;;;;5068184;28;20404;-71
2021/03/14 11:53:42;;;;;;;6.30;1.70;;;11.00;71.20;;;;;;5068821;28;20123;-71
2021/03/14 11:56:07;;;;;;;7.33;1.57;;;11.10;70.40;;;;;;5068810;28;20135;-68
2021/03/14 11:58:33;;;;;;;4.40;1.57;;;11.10;69.40;;;;;;5067930;28;20063;-68
2021/03/14 12:00:58;;;;;;;8.30;1.87;;;11.10;69.90;;;;;;5067926;28;20098;-69
2021/03/14 12:03:24;;;;;;;9.50;1.87;;;11.20;69.80;;;;;;5068421;28;20054;-69
2021/03/14 12:05:50;;;;;;;7.23;1.40;;;11.40;69.70;;;;;;5067441;28;20045;-69
2021/03/14 12:08:16;;;;;;;8.97;2.10;;;11.70;70.40;;;;;;5067849;28;20109;-69
2021/03/14 12:10:41;;;;;;;8.50;2.00;;;12.00;69.50;;;;;;5067135;28;20401;-69
2021/03/14 12:13:07;;;;;;;10.57;1.90;;;12.30;67.40;;;;;;5067884;28;20614;-68
2021/03/14 12:15:33;;;;;;;10.10;2.10;;;12.30;66.50;;;;;;5068104;28;20045;-69
2021/03/14 12:17:58;;;;;;;11.43;2.27;;;12.50;66.40;;;;;;5067377;28;20075;-68
2021/03/14 12:20:24;;;;;;;8.87;2.03;;;12.70;65.70;;;;;;5068338;28;20560;-69
2021/03/14 12:22:50;;;;;;;6.53;1.60;;;12.80;65.40;;;;;;5067714;28;20052;-72
2021/03/14 12:25:15;;;;;;;9.80;1.90;;;12.80;64.80;;;;;;5067033;28;20426;-70
2021/03/14 12:27:41;;;;;;;9.23;1.90;;;12.90;64.40;;;;;;5067576;28;20056;-70
2021/03/14 12:30:07;;;;;;;6.33;1.40;;;12.90;63.70;;;;;;5068097;28;20041;-70
2021/03/14 12:32:32;;;;;;;9.70;1.90;;;12.90;63.70;;;;;;5066020;28;20131;-68
2021/03/14 12:34:59;;;;;;;6.90;1.57;;;12.90;63.00;;;;;;5067146;28;20052;-69
2021/03/14 12:37:24;;;;;;;8.13;2.07;;;12.90;62.30;;;;;;5068664;28;20574;-67
2021/03/14 12:39:50;;;;;;;7.20;1.97;;;12.90;62.00;;;;;;5067896;28;20136;-69
2021/03/14 12:42:15;;;;;;;9.73;1.53;;;13.00;62.20;;;;;;5067484;28;20056;-69
2021/03/14 12:44:41;;;;;;;7.43;1.60;;;13.10;61.50;;;;;;5062903;28;20068;-70
2021/03/14 12:47:07;;;;;;;7.67;1.40;;;13.10;61.10;;;;;;5066313;28;20094;-70
2021/03/14 12:49:33;;;;;;;7.83;1.67;;;13.00;60.40;;;;;;5066103;28;20049;-72
2021/03/14 12:51:58;;;;;;;5.77;1.33;;;12.80;60.30;;;;;;5067720;28;20055;-72
2021/03/14 12:54:24;;;;;;;7.33;1.33;;;12.60;60.60;;;;;;5066908;28;20067;-71
2021/03/14 12:56:49;;;;;;;8.07;1.67;;;12.30;60.40;;;;;;5067573;28;20040;-71